Time;durP1;ratioP1;P1;durP2;ratioP2;P2;SDS_P1;SDS_P2;PMS_P1;PMS_P2;Temp;Humidity;BMP_temperature;BMP_pressure;BME280_temperature;BME280_humidity;BME280_pressure;Samples;Min_cycle;Max_cycle;Signal;HPM_P1;HPM_P2
2022/11/01 00:00:03;;;;;;;47.38;27.92;;;;;;;11.33;87.07;98676.34;5006569;28;20040;-80
2022/11/01 00:02:29;;;;;;;45.50;24.20;;;;;;;11.79;85.79;98659.53;5024553;28;20029;-81
2022/11/01 00:04:54;;;;;;;44.72;22.73;;;;;;;12.01;84.44;98651.34;5025497;28;20036;-81
2022/11/01 00:07:20;;;;;;;38.22;21.65;;;;;;;12.07;83.75;98646.78;5013121;28;20021;-81
2022/11/01 00:09:45;;;;;;;50.72;25.10;;;;;;;12.03;83.91;98652.66;5015313;28;20396;-81
2022/11/01 00:12:10;;;;;;;42.70;23.10;;;;;;;12.04;84.00;98651.59;5014110;28;20581;-81
2022/11/01 00:14:36;;;;;;;36.33;23.02;;;;;;;11.99;84.25;98640.09;5010962;28;20034;-81
2022/11/01 00:17:02;;;;;;;46.83;25.55;;;;;;;11.97;83.96;98637.66;4999972;28;20065;-81
2022/11/01 00:19:27;;;;;;;42.75;24.65;;;;;;;12.04;84.26;98643.59;5030971;28;20397;-81
2022/11/01 00:21:52;;;;;;;40.30;22.92;;;;;;;11.89;84.23;98629.34;5031416;28;20041;-81
2022/11/01 00:24:18;;;;;;;41.15;22.95;;;;;;;11.94;84.11;98640.06;5014181;28;20091;-81
2022/11/01 00:26:43;;;;;;;39.03;23.23;;;;;;;11.89;84.47;98619.47;5009707;28;20058;-81
2022/11/01 00:29:10;;;;;;;41.42;22.15;;;;;;;12.01;83.98;98633.41;4995869;28;20034;-81
2022/11/01 00:31:36;;;;;;;39.00;21.98;;;;;;;11.97;83.97;98634.19;5033833;28;20029;-81
2022/11/01 00:34:04;;;;;;;45.75;25.08;;;;;;;11.85;84.84;98634.44;5030084;28;20048;-80
2022/11/01 00:36:30;;;;;;;42.33;23.58;;;;;;;11.84;84.94;98635.47;5007971;28;20551;-81
2022/11/01 00:38:55;;;;;;;42.65;25.20;;;;;;;11.90;84.37;98633.66;5008835;28;20083;-81
2022/11/01 00:41:21;;;;;;;47.47;22.73;;;;;;;11.89;84.55;98621.31;4996699;28;20049;-81
2022/11/01 00:43:46;;;;;;;43.20;23.77;;;;;;;11.89;84.35;98634.69;5009140;28;20180;-81
2022/11/01 00:46:12;;;;;;;42.03;24.77;;;;;;;11.82;84.24;98613.53;5008599;28;20051;-81
2022/11/01 00:48:37;;;;;;;44.58;24.08;;;;;;;11.81;84.42;98614.63;5026152;28;20025;-81
2022/11/01 00:51:03;;;;;;;38.80;22.90;;;;;;;11.96;84.29;98630.72;4978916;28;20044;-81
2022/11/01 00:53:28;;;;;;;43.35;24.77;;;;;;;11.86;84.20;98619.97;5032390;28;20064;-81
2022/11/01 00:56:01;;;;;;;46.60;24.25;;;;;;;11.86;84.16;98630.66;5025465;28;20089;-81
2022/11/01 00:58:27;;;;;;;41.80;24.08;;;;;;;11.79;84.12;98624.78;5025684;28;20055;-81
2022/11/01 01:00:52;;;;;;;39.83;22.48;;;;;;;11.93;83.81;98636.59;5027796;28;20029;-81
2022/11/01 01:03:18;;;;;;;41.03;21.83;;;;;;;11.86;84.03;98630.66;5010410;28;20037;-81
2022/11/01 01:05:43;;;;;;;41.75;23.55;;;;;;;11.90;84.23;98630.97;5028683;28;20026;-81
2022/11/01 01:08:09;;;;;;;34.60;21.58;;;;;;;11.89;84.33;98616.78;5013280;28;20053;-81
2022/11/01 01:10:35;;;;;;;42.75;23.90;;;;;;;11.87;83.91;98616.25;5025962;28;20026;-82
2022/11/01 01:13:00;;;;;;;39.78;22.45;;;;;;;11.91;84.11;98616.50;5016214;28;20025;-81
2022/11/01 01:15:25;;;;;;;44.13;22.58;;;;;;;11.87;83.88;98616.25;5029831;28;20025;-81
2022/11/01 01:17:51;;;;;;;36.10;22.23;;;;;;;11.84;84.23;98607.94;5012608;28;20029;-81
2022/11/01 01:20:19;;;;;;;38.50;22.35;;;;;;;11.77;84.22;98594.81;5029855;28;20294;-81
2022/11/01 01:22:55;;;;;;;42.25;24.05;;;;;;;11.75;84.63;98594.25;4993018;28;20033;-81
2022/11/01 01:25:21;;;;;;;37.80;24.35;;;;;;;11.75;84.43;98596.94;5026686;28;20120;-81
2022/11/01 01:27:46;;;;;;;41.70;23.73;;;;;;;11.68;84.66;98585.69;5009419;28;20537;-81
2022/11/01 01:30:12;;;;;;;39.58;23.38;;;;;;;11.78;84.74;98590.25;5030021;28;20029;-81
2022/11/01 01:32:37;;;;;;;38.38;22.58;;;;;;;11.70;84.37;98580.09;5007619;28;20603;-81
2022/11/01 01:35:03;;;;;;;46.15;25.52;;;;;;;11.82;84.30;98583.31;4992121;28;20030;-82
2022/11/01 01:37:29;;;;;;;35.22;21.83;;;;;;;11.77;84.24;98577.97;5026186;28;20021;-81
2022/11/01 01:39:54;;;;;;;43.47;24.48;;;;;;;11.78;84.55;98591.06;4986992;28;20123;-81
2022/11/01 01:42:36;;;;;;;40.90;23.42;;;;;;;11.74;84.50;98584.66;5026880;28;20120;-81
2022/11/01 01:45:30;;;;;;;42.13;24.30;;;;;;;11.79;84.73;98589.22;5013441;28;20048;-81
2022/11/01 01:48:02;;;;;;;39.92;21.45;;;;;;;11.75;84.35;98564.06;5010657;28;20047;-81
2022/11/01 01:50:58;;;;;;;42.67;23.92;;;;;;;11.68;84.36;98556.28;5020674;28;20029;-82
2022/11/01 01:53:35;;;;;;;39.40;24.08;;;;;;;11.69;84.55;98557.06;5004826;28;20021;-81
2022/11/01 01:56:20;;;;;;;45.17;23.80;;;;;;;11.86;84.47;98576.41;5023941;28;20090;-81
2022/11/01 01:58:53;;;;;;;43.03;23.55;;;;;;;11.88;84.60;98575.06;5007201;28;20073;-82
2022/11/01 02:01:19;;;;;;;38.28;21.55;;;;;;;11.86;84.68;98579.09;5022649;28;20021;-82
2022/11/01 02:03:45;;;;;;;38.42;22.30;;;;;;;11.81;84.72;98568.34;5028226;28;20101;-82
2022/11/01 02:06:14;;;;;;;40.90;21.48;;;;;;;11.89;84.78;98570.50;5032141;28;20021;-82
2022/11/01 02:08:42;;;;;;;40.35;22.15;;;;;;;11.89;84.92;98565.97;5006320;28;20040;-82
2022/11/01 02:11:09;;;;;;;42.30;21.65;;;;;;;11.81;84.64;98547.78;5008888;28;20021;-82
2022/11/01 02:13:36;;;;;;;41.00;21.63;;;;;;;11.89;85.50;98563.31;5023794;28;20080;-82
2022/11/01 02:16:01;;;;;;;41.92;22.90;;;;;;;12.04;84.45;98567.88;5029711;28;20033;-81
2022/11/01 02:18:34;;;;;;;38.72;20.95;;;;;;;11.99;84.38;98551.84;5025580;28;20090;-82
2022/11/01 02:21:22;;;;;;;41.45;23.42;;;;;;;12.07;84.84;98559.34;5006679;28;20079;-82
2022/11/01 02:24:13;;;;;;;38.70;20.73;;;;;;;12.06;84.43;98557.72;5023781;28;20037;-82
2022/11/01 02:26:54;;;;;;;36.40;20.10;;;;;;;12.01;84.77;98558.50;5017032;28;20044;-82
2022/11/01 02:30:04;;;;;;;35.15;21.13;;;;;;;11.90;85.18;98550.75;5022226;28;20086;-81
2022/11/01 02:32:36;;;;;;;36.53;20.40;;;;;;;12.00;85.13;98558.78;5009347;28;20921;-82
2022/11/01 02:35:13;;;;;;;37.10;21.85;;;;;;;11.94;85.13;98559.84;5007680;28;20493;-81
2022/11/01 02:37:52;;;;;;;34.42;21.20;;;;;;;11.92;85.54;98559.31;5009781;28;20025;-82
2022/11/01 02:40:26;;;;;;;43.65;24.98;;;;;;;11.32;88.20;98543.81;5019853;28;20033;-82
2022/11/01 02:43:00;;;;;;;48.38;26.67;;;;;;;11.69;86.33;98544.50;5005238;28;20052;-82
2022/11/01 02:45:33;;;;;;;39.42;22.30;;;;;;;11.84;86.86;98562.47;5025017;28;20059;-82
2022/11/01 02:48:00;;;;;;;36.83;22.02;;;;;;;12.08;85.44;98552.13;5018526;28;20037;-82
2022/11/01 02:50:32;;;;;;;36.40;20.75;;;;;;;12.02;84.99;98549.41;5018866;28;20033;-82
2022/11/01 02:52:58;;;;;;;40.30;21.48;;;;;;;11.60;87.44;98540.72;5023101;28;20037;-82
2022/11/01 02:55:29;;;;;;;30.20;18.65;;;;;;;11.67;87.50;98546.66;5020146;28;20040;-82
2022/11/01 02:57:57;;;;;;;38.60;20.63;;;;;;;11.24;90.65;98550.47;5006713;28;20370;-82
2022/11/01 03:00:27;;;;;;;43.35;25.98;;;;;;;11.71;87.64;98550.41;5022380;28;20114;-82
2022/11/01 03:03:10;;;;;;;31.55;19.13;;;;;;;11.89;85.87;98533.88;5022612;28;20652;-82
2022/11/01 03:05:38;;;;;;;35.50;19.60;;;;;;;12.17;85.40;98545.16;5022467;28;20024;-82
2022/11/01 03:08:11;;;;;;;32.30;19.23;;;;;;;11.96;85.05;98506.88;5025346;28;20397;-82
2022/11/01 03:11:07;;;;;;;31.20;17.23;;;;;;;12.11;85.22;98524.81;5002789;28;20083;-82
2022/11/01 03:13:45;;;;;;;29.40;17.35;;;;;;;12.19;85.06;98548.38;5022791;28;20033;-82
2022/11/01 03:16:28;;;;;;;43.38;23.42;;;;;;;11.90;86.01;98532.03;5005654;28;20051;-82
2022/11/01 03:19:43;;;;;;;45.28;24.60;;;;;;;11.62;89.41;98527.09;5023414;28;20251;-82
2022/11/01 03:22:21;;;;;;;32.85;18.48;;;;;;;11.78;86.84;98492.13;5008162;28;20510;-82
2022/11/01 03:24:52;;;;;;;28.50;17.27;;;;;;;12.12;85.56;98499.69;5024884;28;20032;-82
2022/11/01 03:27:33;;;;;;;34.03;19.70;;;;;;;12.11;86.03;98511.44;5008465;28;20378;-82
2022/11/01 03:30:05;;;;;;;33.75;17.27;;;;;;;12.26;84.97;98516.78;5020693;28;20404;-82
2022/11/01 03:32:39;;;;;;;30.88;16.58;;;;;;;12.31;85.23;98524.84;5022106;28;20629;-81
2022/11/01 03:35:07;;;;;;;29.33;17.90;;;;;;;12.16;85.21;98514.94;5019920;28;20451;-82
2022/11/01 03:37:37;;;;;;;27.90;16.38;;;;;;;12.14;85.13;98501.03;5029044;28;20381;-82
2022/11/01 03:40:05;;;;;;;25.80;16.85;;;;;;;12.21;85.67;98543.56;4988972;28;20886;-82
2022/11/01 03:42:31;;;;;;;31.25;19.45;;;;;;;11.93;87.24;98537.63;5007810;28;20037;-81
2022/11/01 03:45:01;;;;;;;33.03;17.73;;;;;;;12.25;85.52;98539.28;5008384;28;20026;-82
2022/11/01 03:47:28;;;;;;;29.05;18.10;;;;;;;12.29;85.41;98541.16;5015790;28;20025;-82
2022/11/01 03:50:15;;;;;;;26.80;15.98;;;;;;;12.26;85.72;98539.00;5021088;28;20124;-81
2022/11/01 03:52:41;;;;;;;30.67;18.25;;;;;;;12.28;85.50;98536.06;5021008;28;20037;-82
2022/11/01 03:55:17;;;;;;;31.52;17.00;;;;;;;12.22;85.46;98527.25;5021275;28;20032;-82
2022/11/01 03:57:58;;;;;;;34.75;20.60;;;;;;;12.06;87.55;98528.28;5022685;28;20045;-81
2022/11/01 04:00:33;;;;;;;27.48;18.00;;;;;;;12.06;86.67;98517.59;5019889;28;20033;-82
2022/11/01 04:02:59;;;;;;;25.90;16.33;;;;;;;12.00;86.61;98515.97;4984289;28;20927;-82
2022/11/01 04:05:27;;;;;;;29.42;16.38;;;;;;;12.32;85.67;98537.16;5008835;28;20057;-82
2022/11/01 04:07:53;;;;;;;26.17;15.68;;;;;;;12.15;85.56;98531.22;5025259;28;20150;-81
2022/11/01 04:10:20;;;;;;;26.33;17.38;;;;;;;12.18;86.37;98538.75;5007482;28;20423;-81
2022/11/01 04:12:47;;;;;;;25.83;15.65;;;;;;;12.32;85.79;98547.88;5025930;28;20069;-81
2022/11/01 04:20:52;;;;;;;23.38;15.88;;;;;;;12.27;85.29;98529.94;5026153;28;20076;-82
2022/11/01 04:23:18;;;;;;;26.20;16.67;;;;;;;12.17;86.01;98529.09;5009951;28;20454;-82
2022/11/01 04:25:47;;;;;;;24.23;15.30;;;;;;;12.26;85.52;98540.88;5025321;28;20810;-82
2022/11/01 04:28:14;;;;;;;22.13;14.98;;;;;;;12.19;85.50;98538.47;5023871;28;20037;-82
2022/11/01 04:30:40;;;;;;;23.60;15.10;;;;;;;12.06;85.94;98516.81;5026264;28;20481;-82
2022/11/01 04:33:05;;;;;;;26.23;17.20;;;;;;;12.19;86.25;98545.72;5020128;28;20044;-82
2022/11/01 04:35:31;;;;;;;30.95;17.85;;;;;;;11.76;90.04;98553.09;5009147;28;20041;-82
2022/11/01 04:37:58;;;;;;;20.17;14.13;;;;;;;11.88;89.09;98560.91;4995809;28;21700;-81
2022/11/01 04:40:24;;;;;;;24.63;14.02;;;;;;;12.14;86.81;98561.75;5012809;28;20033;-82
2022/11/01 04:42:49;;;;;;;33.95;20.15;;;;;;;11.53;92.19;98561.53;5008141;28;20048;-82
2022/11/01 04:45:15;;;;;;;24.58;15.25;;;;;;;11.64;90.98;98557.03;5010567;28;20034;-82
2022/11/01 04:47:49;;;;;;;29.40;14.38;;;;;;;11.88;88.78;98569.69;5007346;28;20052;-82
2022/11/01 04:50:15;;;;;;;24.45;15.77;;;;;;;11.88;88.16;98567.03;5012457;28;20119;-81
2022/11/01 04:52:41;;;;;;;24.33;12.93;;;;;;;12.13;86.46;98570.81;5005433;28;20022;-82
2022/11/01 04:55:06;;;;;;;21.00;12.93;;;;;;;12.11;87.07;98565.75;5011062;28;20032;-82
2022/11/01 04:57:39;;;;;;;22.83;12.55;;;;;;;12.26;86.10;98552.41;5007034;28;20039;-82
2022/11/01 05:00:05;;;;;;;24.25;12.75;;;;;;;12.21;86.35;98579.13;5022062;28;20489;-81
2022/11/01 05:02:31;;;;;;;19.95;12.55;;;;;;;12.24;85.90;98573.25;5008861;28;20037;-82
2022/11/01 05:04:56;;;;;;;32.83;17.85;;;;;;;11.66;90.04;98573.63;5023839;28;20036;-82
2022/11/01 05:07:22;;;;;;;17.02;12.43;;;;;;;12.03;87.09;98567.06;5009915;28;20033;-82
2022/11/01 05:09:47;;;;;;;18.02;11.98;;;;;;;12.26;86.04;98565.78;4978134;28;20026;-83
2022/11/01 05:12:12;;;;;;;17.63;11.68;;;;;;;12.33;86.04;98592.28;5010975;28;20126;-82
2022/11/01 05:14:38;;;;;;;19.10;13.13;;;;;;;12.33;86.30;98600.31;5027613;28;20061;-83
2022/11/01 05:17:03;;;;;;;19.38;12.82;;;;;;;12.23;85.58;98557.47;5008860;28;20025;-83
2022/11/01 05:19:28;;;;;;;23.13;13.25;;;;;;;12.11;87.74;98597.03;5005864;28;20042;-82
2022/11/01 05:21:54;;;;;;;23.83;13.90;;;;;;;12.17;87.43;98591.44;5034289;28;20025;-83
2022/11/01 05:24:19;;;;;;;25.65;14.88;;;;;;;12.06;88.27;98595.16;5009723;28;20033;-83
2022/11/01 05:26:44;;;;;;;30.73;16.02;;;;;;;11.93;88.42;98566.25;5029675;28;20061;-82
2022/11/01 05:29:10;;;;;;;17.13;11.55;;;;;;;12.06;88.23;98583.69;4995336;28;20168;-83
2022/11/01 05:31:36;;;;;;;22.23;12.43;;;;;;;12.16;87.60;98581.00;5011272;28;20029;-82
2022/11/01 05:34:02;;;;;;;17.02;11.38;;;;;;;12.34;86.92;98599.25;5022399;28;20033;-82
2022/11/01 05:36:27;;;;;;;20.77;11.65;;;;;;;12.33;86.94;98602.97;5021266;28;20029;-82
2022/11/01 05:38:57;;;;;;;15.38;11.63;;;;;;;12.31;87.23;98611.28;5009679;28;20036;-83
2022/11/01 05:41:22;;;;;;;17.27;11.70;;;;;;;12.40;86.65;98624.94;5010741;28;20038;-81
2022/11/01 05:43:48;;;;;;;17.98;11.52;;;;;;;12.31;87.12;98615.81;5026943;28;20028;-82
2022/11/01 05:46:13;;;;;;;20.63;11.40;;;;;;;12.24;88.21;98624.09;5018780;28;20396;-82
2022/11/01 05:48:40;;;;;;;18.92;12.18;;;;;;;12.24;87.18;98608.06;5031855;28;20037;-82
2022/11/01 05:51:06;;;;;;;18.13;11.30;;;;;;;12.49;87.08;98613.44;5023240;28;20111;-83
2022/11/01 05:53:31;;;;;;;18.40;11.98;;;;;;;12.24;87.51;98600.03;5029971;28;20448;-82
2022/11/01 05:55:57;;;;;;;18.23;12.15;;;;;;;12.09;87.68;98580.47;5027864;28;20124;-82
2022/11/01 05:58:22;;;;;;;20.48;13.63;;;;;;;12.33;87.55;98595.75;5030634;28;20029;-82
2022/11/01 06:00:47;;;;;;;17.60;12.00;;;;;;;12.54;87.07;98607.28;4977917;28;20482;-81
2022/11/01 06:03:13;;;;;;;18.80;12.10;;;;;;;12.29;87.37;98583.19;5004649;28;20057;-82
2022/11/01 06:05:38;;;;;;;22.90;13.35;;;;;;;12.32;88.10;98591.47;5032233;28;20033;-82
2022/11/01 06:08:04;;;;;;;18.38;12.32;;;;;;;12.45;86.74;98606.22;5018489;28;20032;-82
2022/11/01 06:10:30;;;;;;;16.55;10.88;;;;;;;12.43;87.46;98617.19;5013650;28;20048;-82
2022/11/01 06:12:56;;;;;;;19.50;11.63;;;;;;;12.45;87.31;98603.56;5030670;28;20029;-82
2022/11/01 06:15:22;;;;;;;15.73;11.65;;;;;;;12.45;87.47;98612.34;5000346;28;20103;-82
2022/11/01 06:17:47;;;;;;;19.23;12.00;;;;;;;12.48;87.38;98625.22;5010612;28;20040;-82
2022/11/01 06:20:12;;;;;;;18.55;11.90;;;;;;;12.44;87.28;98607.28;5008321;28;20057;-82
2022/11/01 06:22:38;;;;;;;21.02;11.43;;;;;;;12.44;87.32;98616.13;4998403;28;20033;-82
2022/11/01 06:25:05;;;;;;;18.83;11.55;;;;;;;12.33;87.52;98619.84;5011758;28;20465;-82
2022/11/01 06:27:31;;;;;;;17.33;10.93;;;;;;;12.37;87.75;98623.59;5023661;28;20029;-82
2022/11/01 06:29:56;;;;;;;20.70;12.90;;;;;;;12.35;88.33;98625.75;5007417;28;20548;-82
2022/11/01 06:32:22;;;;;;;16.63;10.75;;;;;;;12.27;88.56;98626.28;5029455;28;20124;-82
2022/11/01 06:34:47;;;;;;;19.80;10.75;;;;;;;12.28;88.53;98621.69;5031031;28;20037;-82
2022/11/01 06:37:13;;;;;;;19.05;10.80;;;;;;;12.37;88.30;98638.84;5030857;28;20036;-82
2022/11/01 06:39:38;;;;;;;13.68;9.65;;;;;;;12.32;88.29;98628.16;5029617;28;20061;-82
2022/11/01 06:42:04;;;;;;;18.27;10.45;;;;;;;12.25;88.23;98616.88;5008892;28;20124;-82
2022/11/01 06:44:29;;;;;;;15.63;10.50;;;;;;;12.24;87.96;98620.63;5025601;28;20076;-82
2022/11/01 06:46:54;;;;;;;17.90;11.82;;;;;;;12.24;88.56;98625.97;5010820;28;20045;-82
2022/11/01 06:49:20;;;;;;;19.02;10.23;;;;;;;12.26;88.24;98613.94;5003784;28;20041;-82
2022/11/01 06:51:46;;;;;;;17.08;10.70;;;;;;;12.57;87.05;98650.41;5029735;28;20022;-82
2022/11/01 06:54:12;;;;;;;20.65;11.55;;;;;;;12.62;87.14;98652.28;5027022;28;20579;-82
2022/11/01 06:56:37;;;;;;;18.85;10.50;;;;;;;12.48;87.50;98652.00;5026670;28;20156;-82
2022/11/01 06:59:02;;;;;;;16.33;9.90;;;;;;;12.32;88.24;98642.31;5006792;28;20030;-82
2022/11/01 07:01:28;;;;;;;19.50;11.15;;;;;;;12.41;87.77;98635.38;5029185;28;20609;-81
2022/11/01 07:03:53;;;;;;;17.45;10.75;;;;;;;12.43;87.27;98635.09;5026431;28;20506;-82
2022/11/01 07:06:19;;;;;;;12.00;8.93;;;;;;;12.49;87.30;98644.78;5015504;28;20037;-81
2022/11/01 07:08:45;;;;;;;14.65;10.23;;;;;;;12.56;87.16;98645.28;4983729;28;20438;-82
2022/11/01 07:11:10;;;;;;;19.45;10.98;;;;;;;12.56;87.81;98650.66;5023113;28;20034;-82
2022/11/01 07:13:37;;;;;;;18.52;11.35;;;;;;;12.37;88.74;98644.19;5028413;28;20036;-82
2022/11/01 07:16:04;;;;;;;17.48;11.13;;;;;;;12.45;89.06;98663.22;4996701;28;20029;-82
2022/11/01 07:18:30;;;;;;;15.85;10.55;;;;;;;12.46;87.96;98656.81;5023152;28;20072;-82
2022/11/01 07:20:56;;;;;;;16.98;9.70;;;;;;;12.51;88.11;98670.22;5021376;28;20028;-82
2022/11/01 07:23:22;;;;;;;14.68;9.48;;;;;;;12.46;88.59;98667.53;5005633;28;20029;-82
2022/11/01 07:25:51;;;;;;;17.48;10.60;;;;;;;12.53;88.44;98683.31;5025174;28;20033;-82
2022/11/01 07:28:16;;;;;;;22.20;11.70;;;;;;;12.21;92.34;98685.38;5026234;28;20029;-82
2022/11/01 07:30:42;;;;;;;22.70;11.07;;;;;;;12.44;89.44;98691.06;5029576;28;20087;-82
2022/11/01 07:33:08;;;;;;;15.85;10.45;;;;;;;12.39;89.20;98682.22;5003956;28;20095;-82
2022/11/01 07:35:34;;;;;;;17.75;10.02;;;;;;;12.65;87.96;98691.91;5016322;28;20033;-82
2022/11/01 07:38:00;;;;;;;15.85;9.75;;;;;;;12.53;88.35;98680.66;5010661;28;20087;-82
2022/11/01 07:40:26;;;;;;;11.82;8.38;;;;;;;12.66;88.31;98686.31;5011687;28;20033;-82
2022/11/01 07:42:54;;;;;;;16.30;10.30;;;;;;;12.66;88.00;98690.84;5010253;28;20026;-82
2022/11/01 07:45:20;;;;;;;16.13;8.98;;;;;;;12.71;87.60;98693.53;5010070;28;20401;-82
2022/11/01 07:47:45;;;;;;;18.10;9.82;;;;;;;12.70;88.22;98697.28;5027190;28;20034;-81
2022/11/01 07:50:11;;;;;;;12.15;9.13;;;;;;;12.49;89.12;98682.25;5030503;28;20056;-81
2022/11/01 07:52:36;;;;;;;15.05;8.73;;;;;;;12.88;88.21;98691.41;4980780;28;20044;-82
2022/11/01 07:55:02;;;;;;;16.73;11.27;;;;;;;12.90;87.77;98705.34;4993759;28;20398;-82
2022/11/01 07:57:27;;;;;;;17.42;10.20;;;;;;;12.72;87.96;98684.44;5029013;28;20035;-82
2022/11/01 07:59:53;;;;;;;14.73;9.63;;;;;;;12.77;88.94;98700.50;5027799;28;20041;-82
2022/11/01 08:02:18;;;;;;;18.50;9.93;;;;;;;12.73;89.43;98705.56;5004709;28;20033;-82
2022/11/01 08:04:43;;;;;;;16.58;9.45;;;;;;;12.76;89.79;98697.03;5021115;28;20553;-82
2022/11/01 08:07:09;;;;;;;20.02;10.07;;;;;;;12.90;89.21;98699.97;5005456;28;20029;-82
2022/11/01 08:09:34;;;;;;;17.88;9.77;;;;;;;12.93;90.16;98710.16;5026008;28;20029;-82
2022/11/01 08:12:00;;;;;;;16.63;9.00;;;;;;;12.95;90.29;98713.41;5011475;28;20025;-81
2022/11/01 08:14:25;;;;;;;21.27;9.32;;;;;;;12.86;91.10;98706.94;5009309;28;20061;-82
2022/11/01 08:16:54;;;;;;;16.40;8.63;;;;;;;12.93;90.48;98710.16;5024296;28;21649;-81
2022/11/01 08:19:21;;;;;;;14.15;8.60;;;;;;;12.92;90.80;98719.28;4990916;28;20030;-82
2022/11/01 08:21:46;;;;;;;12.80;7.90;;;;;;;13.01;90.77;98716.88;5009173;28;20039;-82
2022/11/01 08:24:11;;;;;;;13.30;7.70;;;;;;;13.10;90.81;98726.03;5010364;28;20037;-82
2022/11/01 08:26:37;;;;;;;14.15;8.73;;;;;;;12.99;91.12;98721.69;5025637;28;20037;-82
2022/11/01 08:29:02;;;;;;;18.73;9.02;;;;;;;13.12;91.61;98726.56;5005935;28;20048;-82
2022/11/01 08:31:28;;;;;;;14.60;8.38;;;;;;;13.22;90.61;98735.41;5024717;28;20026;-82
2022/11/01 08:33:53;;;;;;;14.07;7.82;;;;;;;13.21;90.59;98712.38;5006305;28;20040;-81
2022/11/01 08:36:20;;;;;;;13.48;8.25;;;;;;;13.25;91.00;98717.97;4978506;28;20866;-81
2022/11/01 08:38:46;;;;;;;11.23;7.95;;;;;;;13.28;91.31;98736.22;4992788;28;20048;-82
2022/11/01 08:41:11;;;;;;;17.23;8.20;;;;;;;13.31;91.67;98741.84;5008367;28;20482;-81
2022/11/01 08:43:37;;;;;;;14.57;7.93;;;;;;;13.40;91.65;98745.59;5004146;28;20049;-81
2022/11/01 08:46:02;;;;;;;9.73;7.32;;;;;;;13.48;90.89;98738.88;5008438;28;20037;-81
2022/11/01 08:48:27;;;;;;;12.30;7.72;;;;;;;13.60;90.64;98747.44;5030510;28;20038;-82
2022/11/01 08:50:53;;;;;;;10.70;7.28;;;;;;;13.63;90.16;98740.75;5032935;28;20436;-81
2022/11/01 08:53:18;;;;;;;14.65;8.43;;;;;;;13.61;90.04;98737.53;5032204;28;20044;-82
2022/11/01 08:55:44;;;;;;;13.38;7.70;;;;;;;13.63;90.26;98738.84;5015595;28;20041;-82
2022/11/01 08:58:09;;;;;;;13.90;8.60;;;;;;;13.63;90.15;98736.16;5013743;28;20041;-82
2022/11/01 09:00:35;;;;;;;11.80;6.05;;;;;;;13.62;89.48;98739.94;5014800;28;20437;-81
2022/11/01 09:03:01;;;;;;;9.98;7.30;;;;;;;13.74;89.49;98763.81;5033324;28;20025;-82
2022/11/01 09:05:28;;;;;;;14.43;7.70;;;;;;;13.70;89.44;98752.78;5031109;28;20123;-81
2022/11/01 09:07:58;;;;;;;13.68;7.13;;;;;;;13.64;89.45;98745.03;5015062;28;20027;-82
2022/11/01 09:10:24;;;;;;;8.98;6.90;;;;;;;13.60;89.30;98715.25;5028952;28;20428;-82
2022/11/01 09:12:50;;;;;;;10.52;6.90;;;;;;;13.61;88.63;98726.81;5029071;28;20088;-81
2022/11/01 09:15:15;;;;;;;13.10;8.32;;;;;;;13.60;88.60;98714.47;5014398;28;20034;-82
2022/11/01 09:17:41;;;;;;;12.65;7.60;;;;;;;13.82;88.79;98755.19;5013484;28;20477;-81
2022/11/01 09:20:08;;;;;;;10.55;7.15;;;;;;;13.73;88.29;98741.53;5031200;28;20069;-81
2022/11/01 09:22:36;;;;;;;11.45;6.30;;;;;;;13.79;88.66;98755.72;5032362;28;20025;-82
2022/11/01 09:25:02;;;;;;;11.60;6.88;;;;;;;13.77;88.55;98757.88;5032279;28;20029;-81
2022/11/01 09:27:27;;;;;;;11.98;7.22;;;;;;;13.75;88.10;98743.94;5023663;28;20053;-82
2022/11/01 09:29:53;;;;;;;16.70;6.38;;;;;;;13.85;88.12;98747.41;5014084;28;20485;-82
2022/11/01 09:32:18;;;;;;;7.93;5.72;;;;;;;13.92;88.05;98752.47;5030831;28;20408;-81
2022/11/01 09:34:44;;;;;;;14.77;6.88;;;;;;;13.98;87.45;98754.06;5015277;28;20392;-82
2022/11/01 09:37:09;;;;;;;12.43;7.10;;;;;;;13.95;87.88;98751.94;5030936;28;20030;-82
2022/11/01 09:39:34;;;;;;;15.07;7.35;;;;;;;13.90;87.70;98738.53;5031858;28;20053;-82
2022/11/01 09:42:33;;;;;;;9.60;6.47;;;;;;;13.97;87.72;98757.84;5014921;28;20041;-82
2022/11/01 09:45:04;;;;;;;7.72;5.95;;;;;;;13.99;87.40;98744.94;5025777;28;20021;-81
2022/11/01 09:47:32;;;;;;;12.63;6.43;;;;;;;14.02;86.89;98761.28;5028696;28;20477;-81
2022/11/01 09:50:15;;;;;;;8.23;6.05;;;;;;;13.99;86.70;98758.38;5032173;28;20103;-81
2022/11/01 09:52:40;;;;;;;10.20;6.07;;;;;;;13.99;86.83;98761.06;5031114;28;20107;-82
2022/11/01 09:55:20;;;;;;;9.10;6.63;;;;;;;14.06;86.76;98773.13;5014402;28;20104;-82
2022/11/01 09:58:29;;;;;;;8.63;6.38;;;;;;;14.10;86.62;98784.91;5011955;28;20036;-82
2022/11/01 10:01:05;;;;;;;11.88;6.15;;;;;;;14.12;86.54;98776.59;5001318;28;20481;-82
2022/11/01 10:04:03;;;;;;;12.75;5.95;;;;;;;14.11;85.89;98783.81;5027949;28;20052;-81
2022/11/01 10:06:38;;;;;;;15.35;6.38;;;;;;;14.01;86.41;98772.31;5004180;28;20041;-81
2022/11/01 10:10:02;;;;;;;9.80;6.38;;;;;;;14.06;85.85;98783.06;5010913;28;20032;-82
2022/11/01 10:12:52;;;;;;;8.15;5.93;;;;;;;14.14;85.61;98785.16;5005086;28;20076;-81
2022/11/01 10:15:46;;;;;;;15.60;5.75;;;;;;;14.15;85.20;98797.53;5028196;28;20037;-82
2022/11/01 10:18:32;;;;;;;8.20;5.47;;;;;;;14.11;85.45;98799.94;5011855;28;20378;-82
2022/11/01 10:21:08;;;;;;;9.57;6.60;;;;;;;14.10;85.65;98800.22;5013520;28;20021;-82
2022/11/01 10:23:33;;;;;;;13.80;6.35;;;;;;;14.16;85.48;98815.22;5009852;28;20037;-82
2022/11/01 10:25:58;;;;;;;10.32;5.78;;;;;;;14.16;84.96;98799.94;5031935;28;20385;-82
2022/11/01 10:28:45;;;;;;;9.32;5.32;;;;;;;14.28;85.54;98813.06;5029686;28;20029;-81
2022/11/01 10:31:15;;;;;;;6.18;5.07;;;;;;;14.29;84.76;98812.00;5025908;28;20397;-81
2022/11/01 10:33:50;;;;;;;9.88;5.38;;;;;;;14.18;84.88;98803.13;5014352;28;20032;-82
2022/11/01 10:36:31;;;;;;;8.50;4.90;;;;;;;14.20;84.96;98800.16;5029672;28;20033;-81
2022/11/01 10:39:16;;;;;;;12.90;5.57;;;;;;;14.08;84.64;98780.88;5010185;28;20022;-82
2022/11/01 10:41:51;;;;;;;13.25;5.65;;;;;;;14.25;85.55;98808.22;5029883;28;20488;-82
2022/11/01 10:44:27;;;;;;;10.10;6.40;;;;;;;14.40;84.31;98827.00;5013045;28;20067;-82
2022/11/01 10:46:54;;;;;;;8.98;5.35;;;;;;;14.39;84.21;98817.34;5010192;28;20048;-82
2022/11/01 10:49:28;;;;;;;8.07;5.53;;;;;;;14.49;83.38;98821.88;4996409;28;20394;-82
2022/11/01 10:51:59;;;;;;;8.43;5.45;;;;;;;14.43;83.65;98804.97;5029733;28;20465;-82
2022/11/01 10:54:29;;;;;;;6.88;4.75;;;;;;;14.36;83.44;98792.91;5023194;28;20036;-81
2022/11/01 10:57:00;;;;;;;7.30;5.03;;;;;;;14.47;83.50;98807.91;5030391;28;20083;-82
2022/11/01 10:59:45;;;;;;;9.38;5.43;;;;;;;14.60;82.96;98824.25;4996140;28;20849;-81
2022/11/01 11:02:33;;;;;;;10.20;5.30;;;;;;;14.68;82.15;98815.63;5030339;28;20018;-81
2022/11/01 11:04:58;;;;;;;6.93;5.43;;;;;;;14.71;82.35;98806.19;5029037;28;20029;-82
2022/11/01 11:07:29;;;;;;;6.75;4.80;;;;;;;14.73;82.32;98802.16;4994635;28;20037;-82
2022/11/01 11:09:54;;;;;;;6.60;4.63;;;;;;;14.76;82.50;98820.44;5029305;28;20028;-82
2022/11/01 11:12:22;;;;;;;6.57;4.50;;;;;;;14.69;81.55;98779.63;5028380;28;20029;-82
2022/11/01 11:14:53;;;;;;;8.63;4.35;;;;;;;14.95;80.07;98799.91;4996664;28;20037;-82
2022/11/01 11:17:22;;;;;;;8.10;4.57;;;;;;;14.98;79.98;98812.00;5029352;28;20385;-82
2022/11/01 11:19:51;;;;;;;12.43;4.75;;;;;;;15.03;79.66;98815.44;5028191;28;20030;-82
2022/11/01 11:22:20;;;;;;;9.27;4.20;;;;;;;15.01;79.61;98806.84;5028133;28;20373;-82
2022/11/01 11:24:46;;;;;;;6.07;4.60;;;;;;;15.16;78.99;98819.38;4995257;28;20484;-82
2022/11/01 11:27:21;;;;;;;7.20;4.28;;;;;;;15.17;79.35;98834.44;5030175;28;20052;-82
2022/11/01 11:29:54;;;;;;;8.93;4.40;;;;;;;15.29;78.02;98831.44;5012818;28;20018;-81
2022/11/01 11:32:23;;;;;;;13.45;4.43;;;;;;;15.32;78.22;98844.28;5023699;28;20136;-82
2022/11/01 11:34:57;;;;;;;10.90;4.55;;;;;;;15.27;77.20;98820.94;5019439;28;20112;-81
2022/11/01 11:37:27;;;;;;;7.45;4.25;;;;;;;15.30;77.46;98822.25;5028110;28;20036;-82